Time;durP1;ratioP1;P1;durP2;ratioP2;P2;SDS_P1;SDS_P2;PMS_P1;PMS_P2;Temp;Humidity;BMP_temperature;BMP_pressure;BME280_temperature;BME280_humidity;BME280_pressure;Samples;Min_cycle;Max_cycle;Signal;HPM_P1;HPM_P2
2021/11/11 00:00:38;;;;;;;23.38;15.15;;;231.20;1740.80;;;;;;4899852;29;20040;-61
2021/11/11 00:03:05;;;;;;;31.00;15.30;;;231.20;1740.80;;;;;;4900027;29;20025;-60
2021/11/11 00:05:31;;;;;;;35.90;16.08;;;231.20;1740.80;;;;;;4899890;29;20033;-62
2021/11/11 00:07:57;;;;;;;32.80;16.38;;;231.20;1740.80;;;;;;4899810;29;20036;-60
2021/11/11 00:10:24;;;;;;;25.38;14.65;;;231.20;1715.20;;;;;;4899833;29;20028;-62
2021/11/11 00:12:51;;;;;;;26.58;14.48;;;231.20;1740.80;;;;;;4899492;29;20032;-62
2021/11/11 00:15:17;;;;;;;31.58;14.57;;;231.20;1740.80;;;;;;4899518;29;20033;-60
2021/11/11 00:17:44;;;;;;;23.17;15.07;;;231.20;1715.20;;;;;;4899254;29;20032;-62
2021/11/11 00:20:11;;;;;;;24.02;14.30;;;231.20;1740.80;;;;;;4899329;29;20099;-63
2021/11/11 00:22:39;;;;;;;22.23;14.55;;;231.10;1740.80;;;;;;4897945;29;20053;-63
2021/11/11 00:25:05;;;;;;;21.92;14.10;;;231.10;1715.20;;;;;;4882031;29;20096;-62
2021/11/11 00:27:31;;;;;;;23.02;14.88;;;231.10;1715.20;;;;;;4899210;29;20432;-62
2021/11/11 00:29:57;;;;;;;20.52;13.70;;;231.00;1740.80;;;;;;4899132;29;20060;-62
2021/11/11 00:32:24;;;;;;;22.15;14.75;;;231.00;1740.80;;;;;;4899177;29;20032;-62
2021/11/11 00:34:52;;;;;;;22.75;15.25;;;231.00;1740.80;;;;;;4898633;29;20107;-62
2021/11/11 00:37:22;;;;;;;23.40;14.85;;;231.00;1740.80;;;;;;4898520;29;20375;-62
2021/11/11 00:39:49;;;;;;;19.88;13.68;;;231.00;1740.80;;;;;;4898858;29;20037;-61
2021/11/11 00:42:17;;;;;;;22.38;14.63;;;230.90;1740.80;;;;;;4898538;29;20028;-62
2021/11/11 00:44:43;;;;;;;20.60;13.30;;;231.00;1740.80;;;;;;4898522;29;20057;-62
2021/11/11 00:47:09;;;;;;;21.02;13.77;;;231.00;1715.20;;;;;;4898543;29;20024;-63
2021/11/11 00:49:36;;;;;;;21.67;13.30;;;230.90;1766.40;;;;;;4898354;29;20025;-60
2021/11/11 00:52:04;;;;;;;20.77;13.48;;;230.90;1740.80;;;;;;4898285;29;20036;-60
2021/11/11 00:54:30;;;;;;;21.23;13.77;;;230.90;1740.80;;;;;;4898252;29;20047;-61
2021/11/11 00:56:55;;;;;;;18.98;12.73;;;230.90;1766.40;;;;;;4898293;29;20119;-62
2021/11/11 00:59:21;;;;;;;17.73;12.20;;;230.80;1740.80;;;;;;4898494;29;20387;-61
2021/11/11 01:01:47;;;;;;;18.92;12.32;;;230.80;1740.80;;;;;;4898459;29;20052;-61
2021/11/11 01:04:12;;;;;;;17.52;12.30;;;230.90;1766.40;;;;;;4898205;29;20083;-62
2021/11/11 01:06:38;;;;;;;16.95;12.43;;;230.80;1766.40;;;;;;4898344;29;20112;-63
2021/11/11 01:09:04;;;;;;;22.63;12.90;;;230.80;1740.80;;;;;;4898297;29;20035;-63
2021/11/11 01:11:30;;;;;;;20.08;12.90;;;230.70;1792.00;;;;;;4898097;29;20052;-63
2021/11/11 01:13:55;;;;;;;21.20;12.98;;;230.80;1766.40;;;;;;4898136;29;20030;-61
2021/11/11 01:16:21;;;;;;;17.90;12.57;;;230.70;1766.40;;;;;;4898253;29;20031;-62
2021/11/11 01:18:47;;;;;;;19.83;12.10;;;230.70;1792.00;;;;;;4898009;29;20475;-63
2021/11/11 01:21:13;;;;;;;21.83;13.07;;;230.70;1766.40;;;;;;4897299;29;20044;-63
2021/11/11 01:23:41;;;;;;;18.98;11.57;;;230.70;1766.40;;;;;;4895582;29;20112;-62
2021/11/11 01:26:07;;;;;;;17.48;11.52;;;230.70;1792.00;;;;;;4898030;29;20040;-61
2021/11/11 01:28:34;;;;;;;17.35;11.52;;;230.80;1766.40;;;;;;4898056;29;20029;-63
2021/11/11 01:31:00;;;;;;;17.90;11.52;;;230.90;1766.40;;;;;;4895729;29;20024;-63
2021/11/11 01:33:26;;;;;;;15.35;10.10;;;230.90;1766.40;;;;;;4898196;29;20028;-64
2021/11/11 01:35:52;;;;;;;17.02;11.45;;;230.90;1740.80;;;;;;4897771;29;20035;-61
2021/11/11 01:38:18;;;;;;;16.42;11.25;;;230.90;1766.40;;;;;;4897692;29;20028;-61
2021/11/11 01:40:44;;;;;;;15.48;10.48;;;230.90;1766.40;;;;;;4898043;29;20021;-62
2021/11/11 01:43:10;;;;;;;15.05;11.05;;;230.90;1766.40;;;;;;4897914;29;20025;-63
2021/11/11 01:45:39;;;;;;;15.77;10.55;;;230.90;1766.40;;;;;;4897829;29;20020;-61
2021/11/11 01:48:08;;;;;;;13.77;10.43;;;230.90;1766.40;;;;;;4897541;29;20092;-64
2021/11/11 01:50:34;;;;;;;15.68;10.48;;;230.90;1766.40;;;;;;4897368;29;20479;-60
2021/11/11 01:53:01;;;;;;;16.75;11.63;;;230.90;1766.40;;;;;;4898097;29;20032;-61
2021/11/11 01:55:28;;;;;;;13.75;10.35;;;231.00;1740.80;;;;;;4897535;29;20036;-64
2021/11/11 01:57:55;;;;;;;13.30;10.27;;;231.00;1740.80;;;;;;4897462;29;20092;-63
2021/11/11 02:00:43;;;;;;;16.67;11.40;;;231.00;1766.40;;;;;;4898133;29;20056;-62
2021/11/11 02:03:10;;;;;;;13.13;9.90;;;231.00;1740.80;;;;;;4897129;29;20099;-63
2021/11/11 02:05:36;;;;;;;14.32;9.95;;;231.00;1740.80;;;;;;4897959;29;20370;-64
2021/11/11 02:08:03;;;;;;;15.00;10.45;;;231.00;1766.40;;;;;;4898393;29;20021;-64
2021/11/11 02:10:30;;;;;;;13.52;10.23;;;231.00;1740.80;;;;;;4897732;29;20025;-63
2021/11/11 02:12:57;;;;;;;13.93;10.35;;;231.00;1766.40;;;;;;4897682;29;20040;-61
2021/11/11 02:15:23;;;;;;;13.85;10.50;;;230.90;1766.40;;;;;;4897590;29;20021;-60
2021/11/11 02:17:50;;;;;;;18.23;12.13;;;231.00;1766.40;;;;;;4880066;29;20057;-63
2021/11/11 02:20:23;;;;;;;18.10;12.05;;;230.90;1766.40;;;;;;4896789;29;20029;-63
2021/11/11 02:22:51;;;;;;;18.40;12.43;;;231.00;1766.40;;;;;;4897512;29;20084;-64
2021/11/11 02:25:19;;;;;;;16.98;12.10;;;230.90;1766.40;;;;;;4897168;29;20021;-64
2021/11/11 02:27:48;;;;;;;17.73;12.82;;;230.90;1766.40;;;;;;4897695;29;20037;-63
2021/11/11 02:30:17;;;;;;;19.45;12.35;;;231.00;1740.80;;;;;;4897141;29;20081;-62
2021/11/11 02:32:45;;;;;;;19.02;11.68;;;230.90;1766.40;;;;;;4900663;29;20040;-60
2021/11/11 02:35:12;;;;;;;16.98;12.30;;;230.90;1766.40;;;;;;4901081;29;20360;-63
2021/11/11 02:37:40;;;;;;;17.08;11.88;;;230.90;1740.80;;;;;;4900634;29;20044;-63
2021/11/11 02:40:09;;;;;;;15.68;10.95;;;230.80;1766.40;;;;;;4900914;29;20025;-63
2021/11/11 02:42:37;;;;;;;19.23;12.10;;;230.90;1766.40;;;;;;4900637;29;20475;-63
2021/11/11 02:45:06;;;;;;;15.82;10.95;;;230.70;1766.40;;;;;;4900500;29;20080;-63
2021/11/11 02:47:33;;;;;;;16.23;11.35;;;230.70;1766.40;;;;;;4884193;29;20057;-63
2021/11/11 02:49:59;;;;;;;18.02;12.27;;;230.90;1740.80;;;;;;4900808;29;20040;-60
2021/11/11 02:52:26;;;;;;;17.17;11.60;;;230.70;1766.40;;;;;;4900319;29;20024;-63
2021/11/11 02:54:52;;;;;;;19.40;13.07;;;230.70;1766.40;;;;;;4900626;29;20380;-63
2021/11/11 02:57:24;;;;;;;24.83;13.52;;;230.80;1740.80;;;;;;4900111;29;20025;-63
2021/11/11 02:59:53;;;;;;;20.15;12.98;;;230.80;1740.80;;;;;;4898625;29;20108;-62
2021/11/11 03:02:31;;;;;;;28.85;15.18;;;230.80;1740.80;;;;;;4900196;29;20073;-63
2021/11/11 03:04:58;;;;;;;22.13;13.18;;;230.70;1740.80;;;;;;4900535;29;20031;-60
2021/11/11 03:07:25;;;;;;;21.40;13.43;;;230.70;1740.80;;;;;;4898292;29;20025;-64
2021/11/11 03:09:51;;;;;;;18.52;12.55;;;230.80;1740.80;;;;;;4900671;29;20051;-64
2021/11/11 03:12:18;;;;;;;19.60;12.52;;;230.70;1766.40;;;;;;4900006;29;20471;-63
2021/11/11 03:14:46;;;;;;;17.17;12.10;;;230.70;1740.80;;;;;;4900141;29;20029;-62
2021/11/11 03:17:13;;;;;;;18.13;12.55;;;230.70;1740.80;;;;;;4900119;29;20045;-64
2021/11/11 03:19:40;;;;;;;16.88;11.93;;;230.60;1766.40;;;;;;4883360;29;20152;-61
2021/11/11 03:22:08;;;;;;;16.58;11.02;;;230.60;1766.40;;;;;;4900566;29;20510;-63
2021/11/11 03:24:35;;;;;;;19.25;11.77;;;230.60;1766.40;;;;;;4900876;29;20029;-64
2021/11/11 03:27:01;;;;;;;18.65;11.18;;;230.60;1766.40;;;;;;4900995;29;20024;-64
2021/11/11 03:29:27;;;;;;;19.80;11.18;;;230.70;1766.40;;;;;;4900809;29;20029;-64
2021/11/11 03:31:53;;;;;;;18.42;10.35;;;230.60;1766.40;;;;;;4900729;29;20036;-63
2021/11/11 03:34:19;;;;;;;14.57;10.25;;;230.70;1766.40;;;;;;4900766;29;20036;-60
2021/11/11 03:36:46;;;;;;;14.75;10.82;;;230.70;1740.80;;;;;;4900503;29;20028;-64
2021/11/11 03:39:12;;;;;;;14.30;9.95;;;230.60;1766.40;;;;;;4900715;29;20383;-64
2021/11/11 03:41:38;;;;;;;14.73;10.43;;;230.70;1740.80;;;;;;4900529;29;20028;-64
2021/11/11 03:44:04;;;;;;;14.15;10.50;;;230.60;1766.40;;;;;;4899786;29;20095;-62
2021/11/11 03:46:30;;;;;;;14.65;9.50;;;230.60;1766.40;;;;;;4900532;29;20025;-61
2021/11/11 03:48:55;;;;;;;15.38;10.60;;;230.70;1766.40;;;;;;4900362;29;20033;-64
2021/11/11 03:51:22;;;;;;;14.48;9.88;;;230.60;1766.40;;;;;;4900241;29;20076;-64
2021/11/11 03:53:49;;;;;;;13.77;9.75;;;230.60;1766.40;;;;;;4900189;29;20108;-64
2021/11/11 03:56:16;;;;;;;13.85;9.80;;;230.70;1740.80;;;;;;4900285;29;20036;-64
2021/11/11 03:58:44;;;;;;;15.02;10.23;;;230.70;1766.40;;;;;;4900134;29;20394;-63
2021/11/11 04:01:12;;;;;;;15.32;9.80;;;230.70;1740.80;;;;;;4900063;29;20058;-62
2021/11/11 04:03:38;;;;;;;13.68;9.88;;;230.70;1740.80;;;;;;4900221;29;20056;-64
2021/11/11 04:06:04;;;;;;;17.77;11.65;;;230.70;1766.40;;;;;;4900207;29;20103;-63
2021/11/11 04:08:30;;;;;;;19.70;13.50;;;230.80;1740.80;;;;;;4900153;29;20479;-64
2021/11/11 04:10:56;;;;;;;23.80;14.68;;;230.80;1740.80;;;;;;4900282;29;20358;-63
2021/11/11 04:13:22;;;;;;;19.27;13.63;;;230.80;1740.80;;;;;;4900106;29;20051;-64
2021/11/11 04:15:48;;;;;;;17.83;13.32;;;230.80;1740.80;;;;;;4900059;29;20459;-64
2021/11/11 04:18:14;;;;;;;14.85;11.50;;;230.80;1740.80;;;;;;4900063;29;20052;-61
2021/11/11 04:20:39;;;;;;;17.08;11.73;;;230.80;1740.80;;;;;;4899855;29;20033;-64
2021/11/11 04:23:06;;;;;;;16.73;10.70;;;230.80;1740.80;;;;;;4899595;29;20083;-61
2021/11/11 04:25:50;;;;;;;14.13;10.43;;;230.90;1740.80;;;;;;4899996;29;20052;-60
2021/11/11 04:28:29;;;;;;;15.40;10.70;;;230.90;1740.80;;;;;;4899650;29;20028;-61
2021/11/11 04:30:59;;;;;;;15.32;9.30;;;230.90;1740.80;;;;;;4899480;29;20413;-64
2021/11/11 04:33:25;;;;;;;14.95;10.75;;;230.80;1740.80;;;;;;4899369;29;20498;-61
2021/11/11 04:35:57;;;;;;;13.27;10.02;;;230.80;1740.80;;;;;;4899708;29;20049;-64
2021/11/11 04:41:12;;;;;;;13.10;9.82;;;230.80;1740.80;;;;;;4899501;29;20080;-60
2021/11/11 05:05:18;;;;;;;16.25;9.38;;;230.80;1715.20;;;;;;4751724;30;20076;-64
2021/11/11 05:07:44;;;;;;;12.93;9.82;;;230.80;1740.80;;;;;;4751074;30;20449;-63
2021/11/11 05:10:10;;;;;;;15.98;9.63;;;230.80;1740.80;;;;;;4751719;30;20040;-64
2021/11/11 05:12:36;;;;;;;13.77;9.82;;;230.80;1740.80;;;;;;4751020;30;20036;-64
2021/11/11 05:15:03;;;;;;;15.48;10.48;;;230.90;1740.80;;;;;;4751218;30;20498;-64
2021/11/11 05:17:29;;;;;;;16.55;10.38;;;230.80;1740.80;;;;;;4751498;30;20047;-61
2021/11/11 05:19:55;;;;;;;13.75;9.77;;;230.80;1740.80;;;;;;4751434;30;20081;-63
2021/11/11 05:22:20;;;;;;;22.88;10.90;;;230.80;1740.80;;;;;;4750982;30;20056;-64
2021/11/11 05:24:47;;;;;;;16.27;10.20;;;230.70;1740.80;;;;;;4750923;30;20406;-65
2021/11/11 05:27:14;;;;;;;13.45;9.50;;;230.70;1740.80;;;;;;4750901;30;20523;-64
2021/11/11 05:29:41;;;;;;;13.75;10.02;;;230.70;1740.80;;;;;;4751339;30;20035;-64
2021/11/11 05:32:07;;;;;;;14.98;9.90;;;230.70;1740.80;;;;;;4751094;30;20461;-63
2021/11/11 05:34:33;;;;;;;14.15;9.57;;;230.80;1740.80;;;;;;4873340;29;20036;-64
2021/11/11 05:36:59;;;;;;;13.63;9.40;;;230.80;1715.20;;;;;;4881006;29;20039;-64
2021/11/11 05:39:24;;;;;;;16.33;10.20;;;230.70;1740.80;;;;;;4898636;29;20394;-65
2021/11/11 05:41:51;;;;;;;13.93;10.32;;;230.80;1715.20;;;;;;4899193;29;20494;-61
2021/11/11 05:44:16;;;;;;;16.88;10.98;;;230.80;1715.20;;;;;;4898670;29;20056;-62
2021/11/11 05:46:42;;;;;;;16.80;11.43;;;230.80;1740.80;;;;;;4898491;29;20071;-60
2021/11/11 05:49:08;;;;;;;17.90;11.65;;;230.90;1792.00;;;;;;4898671;29;20360;-64
2021/11/11 05:51:34;;;;;;;16.73;11.13;;;230.80;1766.40;;;;;;4898535;29;20378;-64
2021/11/11 05:54:00;;;;;;;21.85;11.80;;;230.90;1740.80;;;;;;4898428;29;20483;-64
2021/11/11 05:56:25;;;;;;;22.15;14.38;;;230.90;1715.20;;;;;;4898441;29;20028;-64
2021/11/11 05:58:51;;;;;;;27.88;11.23;;;230.80;1766.40;;;;;;4895662;29;20086;-64
2021/11/11 06:01:19;;;;;;;25.70;11.63;;;231.00;1792.00;;;;;;4897717;29;20475;-60
2021/11/11 06:03:45;;;;;;;22.55;12.93;;;231.00;1843.20;;;;;;4897780;29;20044;-60
2021/11/11 06:06:11;;;;;;;26.55;14.27;;;230.90;1740.80;;;;;;4898934;29;20467;-60
2021/11/11 06:08:37;;;;;;;31.27;19.60;;;230.90;1715.20;;;;;;4901254;29;20088;-60
2021/11/11 06:11:03;;;;;;;31.73;16.33;;;230.80;1740.80;;;;;;4901136;29;20040;-60
2021/11/11 06:13:28;;;;;;;31.98;18.17;;;230.70;1740.80;;;;;;4901074;29;20060;-64
2021/11/11 06:15:54;;;;;;;28.15;16.85;;;230.70;1715.20;;;;;;4901364;29;20100;-64
2021/11/11 06:18:21;;;;;;;25.65;14.57;;;230.70;1740.80;;;;;;4901065;29;20195;-65
2021/11/11 06:20:56;;;;;;;22.70;14.48;;;230.70;1715.20;;;;;;4900642;29;20065;-63
2021/11/11 06:23:22;;;;;;;18.45;12.48;;;230.60;1740.80;;;;;;4901032;29;20123;-60
2021/11/11 06:25:47;;;;;;;18.40;12.82;;;230.50;1740.80;;;;;;4900951;29;20160;-63
2021/11/11 06:28:13;;;;;;;24.25;12.75;;;230.50;1740.80;;;;;;4900625;29;20114;-61
2021/11/11 06:30:39;;;;;;;24.20;12.45;;;230.40;1792.00;;;;;;4900592;29;20170;-63
2021/11/11 06:33:05;;;;;;;22.02;12.40;;;230.40;1766.40;;;;;;4900870;29;20069;-63
2021/11/11 06:35:32;;;;;;;18.65;10.90;;;230.40;1766.40;;;;;;4900642;29;20101;-61
2021/11/11 06:37:59;;;;;;;18.75;12.00;;;230.40;1792.00;;;;;;4900854;29;20047;-61
2021/11/11 06:40:27;;;;;;;17.92;13.27;;;230.40;1766.40;;;;;;4914570;29;20036;-60
2021/11/11 06:42:53;;;;;;;21.52;13.85;;;230.40;1792.00;;;;;;4919385;29;20510;-60
2021/11/11 06:45:20;;;;;;;29.55;18.65;;;230.40;1766.40;;;;;;4919863;29;20061;-64
2021/11/11 06:47:45;;;;;;;36.05;20.17;;;205.70;1792.00;;;;;;4919435;29;20512;-64
2021/11/11 06:50:11;;;;;;;35.70;19.42;;;230.40;1792.00;;;;;;4919208;29;20034;-64
2021/11/11 06:52:37;;;;;;;28.85;16.23;;;230.40;1792.00;;;;;;4914700;29;20043;-62
2021/11/11 06:55:05;;;;;;;33.25;19.83;;;230.40;1817.60;;;;;;4903684;29;20111;-63
2021/11/11 06:57:31;;;;;;;23.63;15.85;;;230.40;1792.00;;;;;;4900286;29;20525;-62
2021/11/11 06:59:56;;;;;;;31.80;17.30;;;230.40;1817.60;;;;;;4899772;29;20024;-63
2021/11/11 07:02:26;;;;;;;28.45;17.42;;;230.40;1817.60;;;;;;4899882;29;20471;-60
2021/11/11 07:04:52;;;;;;;27.27;17.23;;;230.40;1817.60;;;;;;4897736;29;20028;-61
2021/11/11 07:07:18;;;;;;;27.73;16.25;;;230.40;1817.60;;;;;;4898824;29;20028;-60
2021/11/11 07:09:44;;;;;;;25.58;16.80;;;230.40;1792.00;;;;;;4899606;29;20025;-60
2021/11/11 07:12:10;;;;;;;28.05;16.90;;;230.40;1817.60;;;;;;4899760;29;20121;-58
2021/11/11 07:14:37;;;;;;;28.77;17.17;;;230.40;1817.60;;;;;;4900244;29;20056;-61
2021/11/11 07:17:03;;;;;;;33.65;19.05;;;230.40;1817.60;;;;;;4898639;29;20108;-61
2021/11/11 07:19:29;;;;;;;28.73;17.08;;;230.40;1817.60;;;;;;4896042;29;20029;-61
2021/11/11 07:21:57;;;;;;;32.08;19.10;;;230.40;1817.60;;;;;;4896699;29;20056;-59
2021/11/11 07:24:23;;;;;;;30.77;17.83;;;230.50;1843.20;;;;;;4899450;29;20068;-57
2021/11/11 07:26:49;;;;;;;30.27;15.95;;;230.50;1843.20;;;;;;4898380;29;20056;-59
2021/11/11 07:29:14;;;;;;;25.25;16.92;;;230.60;1843.20;;;;;;4899145;29;20025;-60
2021/11/11 07:31:40;;;;;;;29.40;16.55;;;230.60;1817.60;;;;;;4899509;29;20029;-62
2021/11/11 07:34:06;;;;;;;23.95;15.93;;;230.70;1817.60;;;;;;4899399;29;20029;-61
2021/11/11 07:36:32;;;;;;;26.67;14.93;;;230.70;1817.60;;;;;;4896467;29;20486;-60
2021/11/11 07:39:01;;;;;;;24.50;14.82;;;230.70;1817.60;;;;;;4899207;29;20111;-60
2021/11/11 07:41:27;;;;;;;29.67;14.10;;;230.80;1792.00;;;;;;4899189;29;20183;-62
2021/11/11 07:43:53;;;;;;;22.33;14.63;;;230.80;1817.60;;;;;;4899389;29;20486;-60
2021/11/11 07:46:19;;;;;;;23.98;15.35;;;230.90;1792.00;;;;;;4899226;29;20029;-60
2021/11/11 07:48:45;;;;;;;27.55;13.98;;;230.90;1792.00;;;;;;4899202;29;20044;-61
2021/11/11 07:51:10;;;;;;;23.70;14.88;;;230.90;1817.60;;;;;;4899163;29;20073;-57
2021/11/11 07:53:36;;;;;;;26.48;14.70;;;230.90;1817.60;;;;;;4899445;29;20028;-56
2021/11/11 07:56:02;;;;;;;24.42;14.35;;;231.00;1817.60;;;;;;4899261;29;20021;-61
2021/11/11 07:58:29;;;;;;;27.35;15.20;;;231.00;1817.60;;;;;;4898393;29;20045;-58
2021/11/11 08:00:55;;;;;;;23.30;15.43;;;231.00;1817.60;;;;;;4899106;29;20124;-61
2021/11/11 08:03:22;;;;;;;23.60;15.65;;;231.00;1817.60;;;;;;4899891;29;20379;-62
2021/11/11 08:05:47;;;;;;;24.98;15.23;;;231.10;1817.60;;;;;;4899700;29;20025;-62
2021/11/11 08:08:13;;;;;;;25.48;14.18;;;231.20;1817.60;;;;;;4899145;29;20371;-62
2021/11/11 08:10:39;;;;;;;19.73;12.98;;;231.20;1792.00;;;;;;4899475;29;20029;-62
2021/11/11 08:13:05;;;;;;;21.58;14.20;;;231.20;1817.60;;;;;;4897740;29;20080;-56
2021/11/11 08:15:31;;;;;;;21.17;14.23;;;231.30;1792.00;;;;;;4899296;29;20024;-58
2021/11/11 08:17:58;;;;;;;28.23;15.02;;;256.00;1792.00;;;;;;4899028;29;20063;-60
2021/11/11 08:20:24;;;;;;;23.10;13.77;;;256.10;1792.00;;;;;;4897212;29;20041;-58
2021/11/11 08:22:50;;;;;;;23.33;14.57;;;256.20;1817.60;;;;;;4897904;29;20384;-56
2021/11/11 08:25:18;;;;;;;23.58;14.93;;;256.20;1766.40;;;;;;4899183;29;20029;-57
2021/11/11 08:27:45;;;;;;;23.27;14.45;;;256.30;1792.00;;;;;;4898163;29;20052;-57
2021/11/11 08:30:15;;;;;;;21.45;14.40;;;256.40;1792.00;;;;;;4899256;29;20075;-57
2021/11/11 08:32:44;;;;;;;20.98;13.63;;;256.50;1792.00;;;;;;4882464;29;20040;-62
2021/11/11 08:35:11;;;;;;;27.65;13.60;;;256.70;1766.40;;;;;;4898637;29;20025;-61
2021/11/11 08:37:38;;;;;;;20.75;13.52;;;256.80;1766.40;;;;;;4899119;29;20537;-62
2021/11/11 08:40:05;;;;;;;23.33;15.30;;;256.80;1766.40;;;;;;4899299;29;20036;-59
2021/11/11 08:42:31;;;;;;;26.40;14.38;;;281.60;1766.40;;;;;;4899229;29;20032;-58
2021/11/11 08:44:57;;;;;;;20.83;13.65;;;281.70;1766.40;;;;;;4899404;29;20025;-56
2021/11/11 08:47:22;;;;;;;21.48;12.70;;;281.80;1740.80;;;;;;4899614;29;20029;-62
2021/11/11 08:49:52;;;;;;;22.45;14.57;;;281.90;1740.80;;;;;;4898588;29;20033;-57
2021/11/11 08:52:17;;;;;;;25.08;13.98;;;281.90;1715.20;;;;;;4898532;29;20499;-57
2021/11/11 08:54:44;;;;;;;22.88;14.60;;;282.10;1740.80;;;;;;4898388;29;20088;-56
2021/11/11 08:57:10;;;;;;;20.13;12.88;;;282.10;1715.20;;;;;;4898704;29;20035;-57
2021/11/11 08:59:36;;;;;;;20.63;12.60;;;282.20;1664.00;;;;;;4898626;29;20037;-59
2021/11/11 09:02:02;;;;;;;27.70;14.52;;;282.20;1689.60;;;;;;4898330;29;20017;-56
2021/11/11 09:04:28;;;;;;;26.08;15.10;;;282.30;1664.00;;;;;;4898464;29;20092;-56
2021/11/11 09:06:54;;;;;;;22.48;13.82;;;282.30;1664.00;;;;;;4898732;29;20033;-57
2021/11/11 09:09:21;;;;;;;22.50;14.05;;;282.30;1689.60;;;;;;4898453;29;20450;-58
2021/11/11 09:11:48;;;;;;;25.10;14.57;;;282.50;1664.00;;;;;;4898669;29;20116;-56
2021/11/11 09:14:15;;;;;;;21.30;14.13;;;282.50;1664.00;;;;;;4898356;29;20029;-56
2021/11/11 09:16:41;;;;;;;23.27;14.60;;;307.20;1664.00;;;;;;4898084;29;20031;-60
2021/11/11 09:19:11;;;;;;;25.20;13.15;;;307.30;1664.00;;;;;;4897953;29;20032;-61
2021/11/11 09:21:41;;;;;;;17.15;12.43;;;307.30;1664.00;;;;;;4897868;29;20452;-61
2021/11/11 09:24:10;;;;;;;21.48;12.55;;;307.40;1638.40;;;;;;4896140;29;20033;-61
2021/11/11 09:26:37;;;;;;;19.90;12.90;;;307.40;1638.40;;;;;;4897976;29;20025;-57
2021/11/11 09:29:04;;;;;;;21.23;14.20;;;307.50;1638.40;;;;;;4898375;29;20475;-57
2021/11/11 09:31:30;;;;;;;22.08;13.25;;;307.60;1638.40;;;;;;4898576;29;20025;-57
2021/11/11 09:33:56;;;;;;;22.63;13.20;;;307.60;1638.40;;;;;;4897938;29;20060;-56
2021/11/11 09:36:21;;;;;;;21.30;13.70;;;307.60;1638.40;;;;;;4897832;29;20060;-62
2021/11/11 09:38:48;;;;;;;19.63;12.48;;;307.70;1638.40;;;;;;4898676;29;20124;-61
2021/11/11 09:41:16;;;;;;;16.35;11.65;;;307.80;1638.40;;;;;;4897652;29;20486;-59
2021/11/11 09:43:42;;;;;;;21.52;11.63;;;307.80;1638.40;;;;;;4898463;29;20091;-57
2021/11/11 09:46:11;;;;;;;16.90;11.80;;;307.90;1638.40;;;;;;4898585;29;20551;-58
2021/11/11 09:48:38;;;;;;;19.70;11.77;;;308.00;1612.80;;;;;;4896670;29;20043;-57
2021/11/11 09:51:05;;;;;;;18.30;11.73;;;308.00;1612.80;;;;;;4911143;29;20149;-60
2021/11/11 09:53:32;;;;;;;17.05;11.43;;;308.10;1587.20;;;;;;4897752;29;20021;-62
2021/11/11 09:58:45;;;;;;;23.05;13.80;;;308.10;1587.20;;;;;;4897857;29;20127;-57
2021/11/11 10:01:17;;;;;;;26.65;14.60;;;308.10;1612.80;;;;;;4898024;29;20463;-59
2021/11/11 10:03:45;;;;;;;24.23;12.27;;;308.10;1587.20;;;;;;4897978;29;20045;-66
2021/11/11 10:06:31;;;;;;;19.33;11.90;;;332.80;1612.80;;;;;;4897108;29;20040;-66
2021/11/11 10:09:10;;;;;;;16.00;10.85;;;332.80;1612.80;;;;;;4896891;29;20081;-59
2021/11/11 10:11:40;;;;;;;19.17;12.23;;;332.80;1612.80;;;;;;4898038;29;20095;-58
2021/11/11 10:14:13;;;;;;;18.52;12.07;;;332.80;1612.80;;;;;;4897508;29;20423;-59
2021/11/11 10:16:45;;;;;;;22.30;13.20;;;333.00;1638.40;;;;;;4897431;29;20028;-59
2021/11/11 10:19:12;;;;;;;20.30;13.70;;;333.00;1638.40;;;;;;4897090;29;20127;-59
2021/11/11 10:21:40;;;;;;;17.38;10.75;;;333.00;1612.80;;;;;;4897980;29;20045;-66
2021/11/11 10:24:21;;;;;;;15.20;10.50;;;333.10;1612.80;;;;;;4897459;29;20056;-59
2021/11/11 10:26:58;;;;;;;17.52;10.90;;;333.10;1587.20;;;;;;4897248;29;20062;-64
2021/11/11 10:29:37;;;;;;;29.52;12.95;;;333.30;1587.20;;;;;;4896352;29;20033;-61
2021/11/11 10:32:11;;;;;;;19.73;10.88;;;333.30;1587.20;;;;;;4894988;29;20025;-65
2021/11/11 10:34:50;;;;;;;16.53;11.30;;;333.30;1561.60;;;;;;4895620;29;20087;-66
2021/11/11 10:37:17;;;;;;;16.55;10.60;;;333.30;1561.60;;;;;;4897690;29;20264;-58
2021/11/11 10:39:59;;;;;;;16.38;9.57;;;333.30;1561.60;;;;;;4895597;29;20495;-59
2021/11/11 10:42:28;;;;;;;15.55;9.38;;;333.30;1561.60;;;;;;4897893;29;20080;-63
2021/11/11 10:44:56;;;;;;;14.50;9.30;;;333.50;1561.60;;;;;;4898438;29;20040;-60
2021/11/11 10:47:25;;;;;;;16.98;9.15;;;333.50;1536.00;;;;;;4898021;29;20032;-60
2021/11/11 10:49:51;;;;;;;13.10;8.15;;;333.50;1536.00;;;;;;4898314;29;20424;-61
2021/11/11 10:52:45;;;;;;;13.73;7.28;;;333.60;1510.40;;;;;;4898026;29;20024;-61
2021/11/11 10:55:26;;;;;;;12.82;7.55;;;333.70;1510.40;;;;;;4901240;29;20424;-67
2021/11/11 10:58:07;;;;;;;17.83;8.45;;;333.70;1484.80;;;;;;4901536;29;20048;-60
2021/11/11 11:00:41;;;;;;;14.23;8.75;;;358.40;1484.80;;;;;;4901116;29;20477;-59
2021/11/11 11:03:30;;;;;;;14.30;8.30;;;358.40;1484.80;;;;;;4901015;29;20428;-60
2021/11/11 11:05:58;;;;;;;14.07;8.15;;;358.40;1484.80;;;;;;4901089;29;20068;-60
2021/11/11 11:08:37;;;;;;;15.80;9.18;;;358.50;1484.80;;;;;;4901072;29;20128;-60
2021/11/11 11:11:32;;;;;;;12.15;8.75;;;358.60;1459.20;;;;;;4901452;29;20029;-66
2021/11/11 11:14:10;;;;;;;13.43;8.30;;;358.60;1459.20;;;;;;4900438;29;20153;-59
2021/11/11 11:16:36;;;;;;;19.33;8.50;;;358.60;1459.20;;;;;;4901027;29;20040;-65
2021/11/11 11:19:11;;;;;;;17.38;8.32;;;358.60;1433.60;;;;;;4900918;29;20045;-65
2021/11/11 11:21:45;;;;;;;13.70;8.30;;;358.60;1433.60;;;;;;4900585;29;20513;-60
2021/11/11 11:24:19;;;;;;;16.52;8.00;;;358.70;1459.20;;;;;;4900965;29;20032;-59
2021/11/11 11:26:46;;;;;;;15.43;8.10;;;358.80;1459.20;;;;;;4901020;29;20032;-58
2021/11/11 11:29:21;;;;;;;16.73;7.57;;;358.80;1459.20;;;;;;4900704;29;20043;-58
2021/11/11 11:32:10;;;;;;;12.43;7.57;;;358.90;1433.60;;;;;;4900845;29;20024;-66
2021/11/11 11:34:39;;;;;;;15.23;7.50;;;358.90;1433.60;;;;;;4901206;29;20032;-60
2021/11/11 11:37:23;;;;;;;14.18;8.43;;;358.90;1433.60;;;;;;4900622;29;20169;-59
2021/11/11 11:39:57;;;;;;;15.23;9.48;;;358.90;1408.00;;;;;;4900473;29;20029;-67
2021/11/11 11:42:29;;;;;;;12.40;7.60;;;358.90;1408.00;;;;;;4900732;29;20104;-67
2021/11/11 11:45:00;;;;;;;12.85;7.90;;;359.00;1408.00;;;;;;4900573;29;20096;-67
2021/11/11 11:47:48;;;;;;;18.33;9.63;;;359.00;1408.00;;;;;;4900581;29;20029;-60
2021/11/11 11:50:29;;;;;;;17.05;8.48;;;359.00;1408.00;;;;;;4900566;29;20024;-66
2021/11/11 11:53:01;;;;;;;16.08;8.43;;;359.00;1382.40;;;;;;4900338;29;20096;-60
2021/11/11 11:55:34;;;;;;;15.40;9.75;;;359.00;1382.40;;;;;;4900382;29;20037;-60
2021/11/11 12:17:50;;;;;;;15.27;8.40;;;359.20;1382.40;;;;;;4860622;29;20029;-66
2021/11/11 12:40:13;;;;;;;11.27;6.95;;;359.20;1382.40;;;;;;4860342;29;20094;-60
2021/11/11 12:42:42;;;;;;;13.32;7.35;;;359.20;1382.40;;;;;;4860314;29;20543;-66
2021/11/11 12:45:26;;;;;;;17.05;9.07;;;359.20;1382.40;;;;;;4874417;29;20044;-65
2021/11/11 12:48:09;;;;;;;12.90;7.65;;;359.20;1382.40;;;;;;4899511;29;20079;-60
2021/11/11 12:50:45;;;;;;;10.57;7.32;;;359.20;1382.40;;;;;;4898978;29;20032;-66
2021/11/11 12:53:11;;;;;;;11.15;7.07;;;359.20;1382.40;;;;;;4899617;29;20042;-60
2021/11/11 12:55:43;;;;;;;12.27;7.50;;;359.20;1382.40;;;;;;4899270;29;20024;-65
2021/11/11 12:58:12;;;;;;;8.77;6.63;;;359.20;1382.40;;;;;;4899129;29;20077;-66
2021/11/11 13:00:45;;;;;;;10.55;7.22;;;359.20;1382.40;;;;;;4898891;29;20480;-59
2021/11/11 13:03:11;;;;;;;11.60;7.80;;;359.20;1382.40;;;;;;4899213;29;20494;-60
2021/11/11 13:05:46;;;;;;;12.25;6.68;;;359.20;1408.00;;;;;;4899237;29;20028;-60
2021/11/11 13:08:14;;;;;;;11.15;6.57;;;359.20;1382.40;;;;;;4898832;29;20048;-66
2021/11/11 13:11:04;;;;;;;13.68;8.45;;;359.20;1382.40;;;;;;4899375;29;20403;-65
2021/11/11 13:13:30;;;;;;;10.32;6.80;;;359.20;1382.40;;;;;;4899291;29;20087;-66